Авиационная погода в Вардё

Регион: 
Погода METAR: 
ENSS 161750Z 13020KT 5000 -SNRA SCT007 BKN010 02/01 Q1013 RMK WIND 500FT 11021KT
Время наблюдения
2021-05-16T17:50:00Z
Температура C
2.0
Точка росы
1.0
Направление ветра
130
Скорость ветра (узлы)
20
Метео видимость
3.11
Явления погоды
-SN -RA
Условия полета
MVFR